createdAt,value
2022-10-11T00:00:12.048Z,7.40
2022-10-11T00:02:39.050Z,12.93
2022-10-11T00:05:06.914Z,7.17
2022-10-11T00:07:34.060Z,10.80
2022-10-11T00:10:01.093Z,11.47
2022-10-11T00:12:28.042Z,14.53
2022-10-11T00:14:54.944Z,14.10
2022-10-11T00:17:21.998Z,10.23
2022-10-11T00:19:48.930Z,6.53
2022-10-11T00:22:16.197Z,11.57
2022-10-11T00:24:43.524Z,9.53
2022-10-11T00:27:11.501Z,8.80
2022-10-11T00:29:38.827Z,8.73
2022-10-11T00:32:07.828Z,15.73
2022-10-11T00:34:34.847Z,6.30
2022-10-11T00:37:02.478Z,10.67
2022-10-11T00:39:31.864Z,11.23
2022-10-11T00:41:58.939Z,12.47
2022-10-11T00:44:29.131Z,9.97
2022-10-11T00:47:10.347Z,12.53
2022-10-11T00:49:47.220Z,8.50
2022-10-11T00:52:29.160Z,14.90
2022-10-11T00:55:01.353Z,10.97
2022-10-11T00:57:32.259Z,11.87
2022-10-11T01:00:00.023Z,8.70
2022-10-11T01:02:27.687Z,7.87
2022-10-11T01:05:18.053Z,10.90
2022-10-11T01:07:42.998Z,16.00
2022-10-11T01:10:10.176Z,12.83
2022-10-11T01:13:06.228Z,20.47
2022-10-11T01:15:50.013Z,20.40
2022-10-11T01:18:35.782Z,10.40
2022-10-11T01:21:33.458Z,14.80
2022-10-11T01:24:21.191Z,13.30
2022-10-11T01:27:09.151Z,18.80
2022-10-11T01:30:17.298Z,15.90
2022-10-11T01:33:01.032Z,16.67
2022-10-11T01:35:32.191Z,20.83
2022-10-11T01:38:13.166Z,22.53
2022-10-11T01:40:50.094Z,15.20
2022-10-11T01:43:19.283Z,18.30
2022-10-11T01:45:50.981Z,15.67
2022-10-11T01:48:18.310Z,22.60
2022-10-11T01:50:55.827Z,13.17
2022-10-11T01:53:52.060Z,17.47
2022-10-11T01:56:49.766Z,16.90
2022-10-11T01:59:57.777Z,16.77
2022-10-11T02:02:46.607Z,20.10
2022-10-11T02:05:46.314Z,23.93
2022-10-11T02:08:42.718Z,27.57
2022-10-11T02:11:28.587Z,18.70
2022-10-11T02:14:23.611Z,21.63
2022-10-11T02:16:58.117Z,18.40
2022-10-11T02:19:32.862Z,19.63
2022-10-11T02:22:07.523Z,21.10
2022-10-11T02:24:38.125Z,16.27
2022-10-11T02:27:06.415Z,21.53
2022-10-11T02:29:39.402Z,17.73
2022-10-11T02:32:08.137Z,26.00
2022-10-11T02:34:55.202Z,19.90
2022-10-11T02:37:27.616Z,15.23
2022-10-11T02:39:58.808Z,23.77
2022-10-11T02:42:58.523Z,28.10
2022-10-11T02:45:37.021Z,19.83
2022-10-11T02:48:05.307Z,18.37
2022-10-11T02:50:32.227Z,24.30
2022-10-11T02:52:59.210Z,19.87
2022-10-11T02:55:26.148Z,26.70
2022-10-11T02:57:53.125Z,21.60
2022-10-11T03:00:20.057Z,25.00
2022-10-11T03:02:47.107Z,19.30
2022-10-11T03:05:14.279Z,33.00
2022-10-11T03:07:41.306Z,33.10
2022-10-11T03:10:08.742Z,23.13
2022-10-11T03:12:35.637Z,24.20
2022-10-11T03:15:02.657Z,25.53
2022-10-11T03:17:36.547Z,24.93
2022-10-11T03:20:07.877Z,21.20
2022-10-11T03:22:34.950Z,24.27
2022-10-11T03:25:04.288Z,22.47
2022-10-11T03:27:35.493Z,30.13
2022-10-11T03:30:02.550Z,30.03
2022-10-11T03:32:29.859Z,29.30
2022-10-11T03:34:57.387Z,28.17
2022-10-11T03:37:25.406Z,24.43
2022-10-11T03:39:52.357Z,26.10
2022-10-11T03:42:19.327Z,24.97
2022-10-11T03:44:49.063Z,28.43
2022-10-11T03:47:16.090Z,25.40
2022-10-11T03:49:43.916Z,23.97
2022-10-11T03:52:11.543Z,28.03
2022-10-11T03:54:38.532Z,29.40
2022-10-11T03:57:05.566Z,26.47
2022-10-11T03:59:32.428Z,28.70
2022-10-11T04:01:59.414Z,25.23
2022-10-11T04:04:26.405Z,23.30
2022-10-11T04:06:53.585Z,26.33
2022-10-11T04:09:20.539Z,19.73
2022-10-11T04:11:47.451Z,21.20
2022-10-11T04:14:14.520Z,16.77
2022-10-11T04:16:41.930Z,21.83
2022-10-11T04:19:09.287Z,17.73
2022-10-11T04:21:36.186Z,17.27
2022-10-11T04:24:03.194Z,21.03
2022-10-11T04:26:30.185Z,16.50
2022-10-11T04:28:57.211Z,22.40
2022-10-11T04:31:24.272Z,16.97
2022-10-11T04:33:51.199Z,14.40
2022-10-11T04:36:18.203Z,18.10
2022-10-11T04:38:45.216Z,19.73
2022-10-11T04:41:14.202Z,19.60
2022-10-11T04:43:41.735Z,16.60
2022-10-11T04:46:09.608Z,15.63
2022-10-11T04:48:37.179Z,18.30
2022-10-11T04:51:04.327Z,18.43
2022-10-11T04:53:31.446Z,21.23
2022-10-11T04:56:01.258Z,15.40
2022-10-11T04:58:30.047Z,15.13
2022-10-11T05:00:57.496Z,19.97
2022-10-11T05:03:25.307Z,16.67
2022-10-11T05:05:53.036Z,13.47
2022-10-11T05:08:23.065Z,12.70
2022-10-11T05:11:08.219Z,11.73
2022-10-11T05:13:36.230Z,12.80
2022-10-11T05:16:09.626Z,15.50
2022-10-11T05:18:38.330Z,12.40
2022-10-11T05:21:07.790Z,11.37
2022-10-11T05:23:37.171Z,10.23
2022-10-11T05:26:04.825Z,11.93
2022-10-11T05:28:32.536Z,8.20
2022-10-11T05:30:59.697Z,13.83
2022-10-11T05:33:26.950Z,12.03
2022-10-11T05:35:54.061Z,11.13
2022-10-11T05:38:21.136Z,11.00
2022-10-11T05:40:48.219Z,12.67
2022-10-11T05:43:15.815Z,15.67
2022-10-11T05:45:45.681Z,8.53
2022-10-11T05:48:13.062Z,9.60
2022-10-11T05:50:40.249Z,6.90
2022-10-11T05:53:07.423Z,6.87
2022-10-11T05:55:42.865Z,6.73
2022-10-11T05:58:15.404Z,11.40
2022-10-11T06:00:42.363Z,5.40
2022-10-11T06:03:11.654Z,8.47
2022-10-11T06:05:38.938Z,8.53
2022-10-11T06:08:07.255Z,8.37
2022-10-11T06:10:35.277Z,6.60
2022-10-11T06:13:02.378Z,7.20
2022-10-11T06:15:29.834Z,7.57
2022-10-11T06:17:58.024Z,10.87
2022-10-11T06:20:26.400Z,9.80
2022-10-11T06:22:53.391Z,6.77
2022-10-11T06:25:20.370Z,10.20
2022-10-11T06:27:47.236Z,11.30
2022-10-11T06:30:14.735Z,11.27
2022-10-11T06:32:41.642Z,7.57
2022-10-11T06:35:08.959Z,6.33
2022-10-11T06:37:36.041Z,9.10
2022-10-11T06:40:03.529Z,12.87
2022-10-11T06:42:30.527Z,6.83
2022-10-11T06:44:57.487Z,12.33
2022-10-11T06:47:24.340Z,10.80
2022-10-11T06:49:51.387Z,7.50
2022-10-11T06:52:18.293Z,10.97
2022-10-11T06:54:45.699Z,6.43
2022-10-11T06:57:12.665Z,10.33
2022-10-11T06:59:39.586Z,5.23
2022-10-11T07:02:06.949Z,8.63
2022-10-11T07:04:33.988Z,13.83
2022-10-11T07:07:01.248Z,8.40
2022-10-11T07:09:28.229Z,9.60
2022-10-11T07:11:55.365Z,12.07
2022-10-11T07:14:22.333Z,10.70
2022-10-11T07:16:49.198Z,4.97
2022-10-11T07:19:16.368Z,8.23
2022-10-11T07:21:43.245Z,6.47
2022-10-11T07:24:10.192Z,6.87
2022-10-11T07:26:38.436Z,14.60
2022-10-11T07:29:10.530Z,11.83
2022-10-11T07:31:40.944Z,7.47
2022-10-11T07:34:08.269Z,11.23
2022-10-11T07:36:36.835Z,5.90
2022-10-11T07:39:07.980Z,6.93
2022-10-11T07:41:35.467Z,6.23
2022-10-11T07:44:03.298Z,14.90
2022-10-11T07:46:30.662Z,9.70
2022-10-11T07:48:58.140Z,15.83
2022-10-11T07:51:25.803Z,15.70
2022-10-11T07:53:56.981Z,25.97
2022-10-11T07:56:29.087Z,7.77
2022-10-11T07:59:03.463Z,12.50
2022-10-11T08:01:31.288Z,9.43
2022-10-11T08:03:58.771Z,7.67
2022-10-11T08:06:31.775Z,10.90
2022-10-11T08:09:00.711Z,8.23
2022-10-11T08:11:31.904Z,12.10
2022-10-11T08:13:59.457Z,7.53
2022-10-11T08:16:26.709Z,31.63
2022-10-11T08:18:56.616Z,7.27
2022-10-11T08:21:23.565Z,10.40
2022-10-11T08:23:50.541Z,7.70
2022-10-11T08:26:17.533Z,11.73
2022-10-11T08:28:44.588Z,12.53
2022-10-11T08:31:16.612Z,12.60
2022-10-11T08:33:44.340Z,7.63
2022-10-11T08:36:11.963Z,13.27
2022-10-11T08:38:39.852Z,11.50
2022-10-11T08:41:46.079Z,9.10
2022-10-11T08:45:10.502Z,8.97
2022-10-11T08:47:43.225Z,16.30
2022-10-11T08:50:21.017Z,13.93
2022-10-11T08:53:21.079Z,11.20
2022-10-11T08:55:51.415Z,13.27
2022-10-11T08:58:24.610Z,11.73
2022-10-11T09:00:55.458Z,10.37
2022-10-11T09:03:42.242Z,12.03
2022-10-11T09:06:52.303Z,11.63
2022-10-11T09:09:56.169Z,9.13
2022-10-11T09:12:54.518Z,7.80
2022-10-11T09:15:55.927Z,10.03
2022-10-11T09:18:43.941Z,19.83
2022-10-11T09:21:34.486Z,8.73
2022-10-11T09:24:10.238Z,7.00
2022-10-11T09:27:01.473Z,15.70
2022-10-11T09:30:12.020Z,13.23
2022-10-11T09:33:00.293Z,8.27
2022-10-11T09:35:29.082Z,6.57
2022-10-11T09:38:10.807Z,10.60
2022-10-11T09:40:52.703Z,9.67
2022-10-11T09:43:19.767Z,9.47
2022-10-11T09:45:49.498Z,19.00
2022-10-11T09:48:40.792Z,14.13
2022-10-11T09:51:17.156Z,10.30
2022-10-11T09:53:55.484Z,8.17
2022-10-11T09:56:25.835Z,7.53
2022-10-11T09:59:16.049Z,16.80
2022-10-11T10:01:43.006Z,7.70
2022-10-11T10:04:19.914Z,13.83
2022-10-11T10:06:46.795Z,8.43
2022-10-11T10:09:26.318Z,11.03
2022-10-11T10:11:55.229Z,12.10
2022-10-11T10:14:29.532Z,5.67
2022-10-11T10:17:06.940Z,5.77
2022-10-11T10:19:45.233Z,10.57
2022-10-11T10:22:27.266Z,9.63
2022-10-11T10:24:56.200Z,8.00
2022-10-11T10:27:31.555Z,19.83
2022-10-11T10:30:16.798Z,7.50
2022-10-11T10:32:56.630Z,9.60
2022-10-11T10:35:42.727Z,12.03
2022-10-11T10:38:35.460Z,9.30
2022-10-11T10:41:08.573Z,7.33
2022-10-11T10:43:38.839Z,11.30
2022-10-11T10:46:20.666Z,9.43
2022-10-11T10:52:14.668Z,8.93
2022-10-11T10:55:06.971Z,11.03
2022-10-11T10:58:18.604Z,7.50
2022-10-11T11:01:14.448Z,7.07
2022-10-11T11:03:51.902Z,8.90
2022-10-11T11:06:40.061Z,14.20
2022-10-11T11:09:36.585Z,11.63
2022-10-11T11:12:30.799Z,8.53
2022-10-11T11:15:12.511Z,8.43
2022-10-11T11:17:49.853Z,9.47
2022-10-11T11:20:54.975Z,8.77
2022-10-11T11:23:45.511Z,12.43
2022-10-11T11:26:24.622Z,8.80
2022-10-11T11:29:20.211Z,17.50
2022-10-11T11:32:17.385Z,14.80
2022-10-11T11:34:58.365Z,11.50
2022-10-11T11:37:44.079Z,10.93
2022-10-11T11:40:27.292Z,12.03
2022-10-11T11:43:03.808Z,6.50
2022-10-11T11:45:52.477Z,6.90
2022-10-11T11:48:26.260Z,6.97
2022-10-11T11:51:04.164Z,10.80
2022-10-11T11:53:51.467Z,10.57
2022-10-11T11:56:33.357Z,8.73
2022-10-11T11:59:18.782Z,7.50
2022-10-11T12:01:51.691Z,5.23
2022-10-11T12:04:35.277Z,7.90
2022-10-11T12:07:16.216Z,9.63
2022-10-11T12:09:50.682Z,7.00
2022-10-11T12:12:37.886Z,10.80
2022-10-11T12:15:19.262Z,5.53
2022-10-11T12:17:57.970Z,9.47
2022-10-11T12:20:37.114Z,16.63
2022-10-11T12:23:28.926Z,11.60
2022-10-11T12:26:40.930Z,7.57
2022-10-11T12:29:50.092Z,6.17
2022-10-11T12:32:34.770Z,5.03
2022-10-11T12:35:33.425Z,8.13
2022-10-11T12:38:34.861Z,8.50
2022-10-11T12:41:21.616Z,7.37
2022-10-11T12:43:48.463Z,11.10
2022-10-11T12:46:33.130Z,7.17
2022-10-11T12:49:18.959Z,9.60
2022-10-11T12:52:29.003Z,14.57
2022-10-11T12:55:33.902Z,10.80
2022-10-11T12:58:29.825Z,10.43
2022-10-11T13:00:58.015Z,10.50
2022-10-11T13:03:35.209Z,6.90
2022-10-11T13:06:25.001Z,10.50
2022-10-11T13:09:25.078Z,7.10
2022-10-11T13:12:13.238Z,10.27
2022-10-11T13:14:48.366Z,8.73
2022-10-11T13:17:32.316Z,6.33
2022-10-11T13:20:26.282Z,8.50
2022-10-11T13:22:55.625Z,7.60
2022-10-11T13:25:29.530Z,7.90
2022-10-11T13:27:59.520Z,7.87
2022-10-11T13:30:35.941Z,6.03
2022-10-11T13:33:08.644Z,6.50
2022-10-11T13:35:38.060Z,7.60
2022-10-11T13:38:14.807Z,8.97
2022-10-11T13:40:41.758Z,5.03
2022-10-11T13:43:09.070Z,7.43
2022-10-11T13:45:37.023Z,5.33
2022-10-11T13:48:04.940Z,5.17
2022-10-11T13:50:34.401Z,4.77
2022-10-11T13:53:03.870Z,6.43
2022-10-11T13:55:34.421Z,8.67
2022-10-11T13:58:11.217Z,6.57
2022-10-11T14:00:40.187Z,6.20
2022-10-11T14:03:13.047Z,3.80
2022-10-11T14:05:52.794Z,5.50
2022-10-11T14:08:35.757Z,4.10
2022-10-11T14:11:06.510Z,6.20
2022-10-11T14:13:36.902Z,8.77
2022-10-11T14:16:12.722Z,8.93
2022-10-11T14:19:09.881Z,5.37
2022-10-11T14:21:45.833Z,4.43
2022-10-11T14:24:14.570Z,9.43
2022-10-11T14:26:54.184Z,7.57
2022-10-11T14:29:29.340Z,6.13
2022-10-11T14:32:04.711Z,5.90
2022-10-11T14:34:32.880Z,4.47
2022-10-11T14:37:00.023Z,9.20
2022-10-11T14:39:30.053Z,4.27
2022-10-11T14:41:56.994Z,3.30
2022-10-11T14:44:24.485Z,6.37
2022-10-11T14:46:54.833Z,4.17
2022-10-11T14:49:30.496Z,7.10
2022-10-11T14:51:58.992Z,12.90
2022-10-11T14:54:28.104Z,3.23
2022-10-11T14:56:59.703Z,4.10
2022-10-11T14:59:34.516Z,6.30
2022-10-11T15:02:02.455Z,7.77
2022-10-11T15:04:29.813Z,8.53
2022-10-11T15:06:58.060Z,15.53
2022-10-11T15:09:25.905Z,5.90
2022-10-11T15:11:54.791Z,10.50
2022-10-11T15:14:25.150Z,9.47
2022-10-11T15:16:52.363Z,6.13
2022-10-11T15:19:22.805Z,7.30
2022-10-11T15:21:50.569Z,6.90
2022-10-11T15:24:19.955Z,9.00
2022-10-11T15:26:47.896Z,9.00
2022-10-11T15:29:17.789Z,4.83
2022-10-11T15:31:45.051Z,6.23
2022-10-11T15:34:12.383Z,11.07
2022-10-11T15:36:39.476Z,5.80
2022-10-11T15:39:30.511Z,8.03
2022-10-11T15:41:58.406Z,5.10
2022-10-11T15:44:25.850Z,8.20
2022-10-11T15:46:52.966Z,11.13
2022-10-11T15:49:20.292Z,9.70
2022-10-11T15:51:50.691Z,5.80
2022-10-11T15:54:17.684Z,9.97
2022-10-11T15:56:44.646Z,5.33
2022-10-11T15:59:11.830Z,7.30
2022-10-11T16:01:39.047Z,9.00
2022-10-11T16:04:07.047Z,8.53
2022-10-11T16:06:33.925Z,4.53
2022-10-11T16:09:00.886Z,11.27
2022-10-11T16:11:27.780Z,5.80
2022-10-11T16:13:54.686Z,8.13
2022-10-11T16:16:21.801Z,8.03
2022-10-11T16:18:50.624Z,4.40
2022-10-11T16:21:17.691Z,5.50
2022-10-11T16:23:44.711Z,6.63
2022-10-11T16:26:14.431Z,6.87
2022-10-11T16:28:42.165Z,5.37
2022-10-11T16:31:18.151Z,6.63
2022-10-11T16:33:45.696Z,6.07
2022-10-11T16:36:31.953Z,7.27
2022-10-11T16:39:01.183Z,10.97
2022-10-11T16:41:28.216Z,14.23
2022-10-11T16:43:56.189Z,9.47
2022-10-11T16:46:23.801Z,3.73
2022-10-11T16:48:50.769Z,10.37
2022-10-11T16:51:17.811Z,6.17
2022-10-11T16:53:44.813Z,6.97
2022-10-11T16:56:12.142Z,8.80
2022-10-11T16:58:39.139Z,5.13
2022-10-11T17:01:11.318Z,5.90
2022-10-11T17:03:38.791Z,3.67
2022-10-11T17:06:07.048Z,9.10
2022-10-11T17:08:35.201Z,5.07
2022-10-11T17:11:03.085Z,6.50
2022-10-11T17:13:30.243Z,10.83
2022-10-11T17:15:57.362Z,5.17
2022-10-11T17:18:24.556Z,6.20
2022-10-11T17:20:51.624Z,10.03
2022-10-11T17:23:18.562Z,11.33
2022-10-11T17:25:46.931Z,9.33
2022-10-11T17:28:13.909Z,10.93
2022-10-11T17:30:42.115Z,13.40
2022-10-11T17:33:09.582Z,10.10
2022-10-11T17:35:36.874Z,11.47
2022-10-11T17:38:06.123Z,9.53
2022-10-11T17:40:33.650Z,6.07
2022-10-11T17:43:00.639Z,10.40
2022-10-11T17:45:27.730Z,12.53
2022-10-11T17:47:54.703Z,11.67
2022-10-11T17:50:21.688Z,8.20
2022-10-11T17:52:49.086Z,9.23
2022-10-11T17:55:16.268Z,6.13
2022-10-11T17:57:43.255Z,10.53
2022-10-11T18:00:12.008Z,14.70
2022-10-11T18:02:40.266Z,11.10
2022-10-11T18:05:08.438Z,7.90
2022-10-11T18:07:35.425Z,10.43
2022-10-11T18:10:02.422Z,10.93
2022-10-11T18:12:30.161Z,9.50
2022-10-11T18:14:57.141Z,12.97
2022-10-11T18:17:25.120Z,7.20
2022-10-11T18:19:52.034Z,5.93
2022-10-11T18:22:18.912Z,10.80
2022-10-11T18:24:45.848Z,12.37
2022-10-11T18:27:12.759Z,10.50
2022-10-11T18:29:39.798Z,3.60
2022-10-11T18:32:06.833Z,7.10
2022-10-11T18:34:33.849Z,7.80
2022-10-11T18:37:00.805Z,8.90
2022-10-11T18:39:27.952Z,6.87
2022-10-11T18:41:54.976Z,8.27
2022-10-11T18:44:22.064Z,13.10
2022-10-11T18:46:50.282Z,8.30
2022-10-11T18:49:17.233Z,7.50
2022-10-11T18:51:46.377Z,10.30
2022-10-11T18:54:16.758Z,5.00
2022-10-11T18:56:47.081Z,7.20
2022-10-11T18:59:14.056Z,10.30
2022-10-11T19:01:44.631Z,7.80
2022-10-11T19:04:18.394Z,28.00
2022-10-11T19:06:48.151Z,10.60
2022-10-11T19:09:26.066Z,12.10
2022-10-11T19:11:55.550Z,7.00
2022-10-11T19:14:26.077Z,8.83
2022-10-11T19:16:53.766Z,6.43
2022-10-11T19:19:24.611Z,9.40
2022-10-11T19:21:52.970Z,7.17
2022-10-11T19:24:23.174Z,7.83
2022-10-11T19:26:52.720Z,16.30
2022-10-11T19:29:23.403Z,8.20
2022-10-11T19:31:57.383Z,13.37
2022-10-11T19:34:27.512Z,15.63
2022-10-11T19:36:56.453Z,10.20
2022-10-11T19:39:24.783Z,6.20
2022-10-11T19:41:52.355Z,7.53
2022-10-11T19:44:19.937Z,8.40
2022-10-11T19:46:52.004Z,7.20
2022-10-11T19:49:22.614Z,7.47
2022-10-11T19:51:50.583Z,9.40
2022-10-11T19:54:18.258Z,8.37
2022-10-11T19:56:45.283Z,6.13
2022-10-11T19:59:13.266Z,8.13
2022-10-11T20:01:41.714Z,18.53
2022-10-11T20:04:27.495Z,10.37
2022-10-11T20:06:58.560Z,5.47
2022-10-11T20:09:30.385Z,8.40
2022-10-11T20:11:58.131Z,8.17
2022-10-11T20:14:25.099Z,8.67
2022-10-11T20:16:52.182Z,7.10
2022-10-11T20:19:19.403Z,17.20
2022-10-11T20:21:47.668Z,7.00
2022-10-11T20:24:14.711Z,10.63
2022-10-11T20:26:41.635Z,6.73
2022-10-11T20:29:08.518Z,7.43
2022-10-11T20:31:40.821Z,10.87
2022-10-11T20:34:08.025Z,12.67
2022-10-11T20:36:36.486Z,8.90
2022-10-11T20:39:05.203Z,11.27
2022-10-11T20:41:39.807Z,5.37
2022-10-11T20:44:09.060Z,7.00
2022-10-11T20:46:39.119Z,6.77
2022-10-11T20:49:09.839Z,12.00
2022-10-11T20:51:39.023Z,14.77
2022-10-11T20:54:06.429Z,19.50
2022-10-11T20:56:34.213Z,8.77
2022-10-11T20:59:01.717Z,9.37
2022-10-11T21:01:33.171Z,10.83
2022-10-11T21:04:01.784Z,8.60
2022-10-11T21:06:30.838Z,7.70
2022-10-11T21:08:59.422Z,13.27
2022-10-11T21:11:28.756Z,7.50
2022-10-11T21:14:02.143Z,7.83
2022-10-11T21:16:29.502Z,6.93
2022-10-11T21:18:58.561Z,4.90
2022-10-11T21:21:26.883Z,7.50
2022-10-11T21:24:00.263Z,9.87
2022-10-11T21:26:27.599Z,6.10
2022-10-11T21:28:55.218Z,6.53
2022-10-11T21:31:23.577Z,9.97
2022-10-11T21:33:50.833Z,5.07
2022-10-11T21:36:20.997Z,15.10
2022-10-11T21:38:49.774Z,6.63
2022-10-11T21:41:24.416Z,12.03
2022-10-11T21:43:51.743Z,7.57
2022-10-11T21:46:47.984Z,6.43
2022-10-11T21:49:16.775Z,8.10
2022-10-11T21:51:43.881Z,9.10
2022-10-11T21:54:11.280Z,11.87
2022-10-11T21:56:38.167Z,8.03
2022-10-11T21:59:07.931Z,9.13
2022-10-11T22:01:38.564Z,6.17
2022-10-11T22:04:07.471Z,10.50
2022-10-11T22:06:35.511Z,7.30
2022-10-11T22:09:03.829Z,9.30
2022-10-11T22:11:31.252Z,6.20
2022-10-11T22:13:58.670Z,7.30
2022-10-11T22:16:25.552Z,6.90
2022-10-11T22:18:54.039Z,7.47
2022-10-11T22:21:23.384Z,8.00
2022-10-11T22:23:53.015Z,14.63
2022-10-11T22:26:30.617Z,7.23
2022-10-11T22:28:59.316Z,5.80
2022-10-11T22:31:27.981Z,6.90
2022-10-11T22:33:58.386Z,10.20
2022-10-11T22:36:26.607Z,7.87
2022-10-11T22:38:54.678Z,5.33
2022-10-11T22:41:22.264Z,6.80
2022-10-11T22:43:49.823Z,9.90
2022-10-11T22:46:16.774Z,5.30
2022-10-11T22:48:43.699Z,6.63
2022-10-11T22:51:10.642Z,8.70
2022-10-11T22:53:37.524Z,8.20
2022-10-11T22:56:04.658Z,12.13
2022-10-11T22:58:31.768Z,7.70
2022-10-11T23:01:10.987Z,7.57
2022-10-11T23:03:38.294Z,6.63
2022-10-11T23:06:05.907Z,10.70
2022-10-11T23:08:32.874Z,12.30
2022-10-11T23:11:05.404Z,13.07
2022-10-11T23:13:32.815Z,6.57
2022-10-11T23:15:59.834Z,4.97
2022-10-11T23:18:27.087Z,10.60
2022-10-11T23:20:53.957Z,7.23
2022-10-11T23:23:20.877Z,8.13
2022-10-11T23:25:47.792Z,5.43
2022-10-11T23:28:14.718Z,8.53
2022-10-11T23:30:41.718Z,8.90
2022-10-11T23:33:08.707Z,7.93
2022-10-11T23:35:35.733Z,7.37
2022-10-11T23:38:02.638Z,13.50
2022-10-11T23:40:29.590Z,7.37
2022-10-11T23:42:56.744Z,5.20
2022-10-11T23:45:23.697Z,4.60
2022-10-11T23:47:50.628Z,7.20
2022-10-11T23:50:17.714Z,6.40
2022-10-11T23:52:44.611Z,6.90
2022-10-11T23:55:11.582Z,7.10
2022-10-11T23:57:38.751Z,10.13
